Terminal Aerodrome Forecast
Issued by NWS Twin Cities, MN

Home | Current Version | Previous Version | Graphics & Text | Print | Product List | Glossary On
Versions: 1 2 3 4 5 6 7 8 9 10 11 12 13 14 15 16 17 18 19 20 21 22 23 24 25 26 27 28
906
FTUS43 KMPX 240529
TAFMSP
TAF
KMSP 240529Z 2406/2512 16005KT P6SM OVC012
     FM240700 19006KT P6SM VCTS SCT007CB OVC010
      TEMPO 2408/2409 2SM TSRA OVC007CB
     FM241000 25006KT P6SM BKN015 OVC250
     FM241200 30007KT P6SM SCT030 BKN250
     FM241600 30010G17KT P6SM FEW050 SCT250
     FM250100 29006KT P6SM FEW250=

USA.gov is the U.S. government's official web portal to all federal, state and local government web resources and services.